Time;durP1;ratioP1;P1;durP2;ratioP2;P2;SDS_P1;SDS_P2;PMS_P1;PMS_P2;Temp;Humidity;BMP_temperature;BMP_pressure;BME280_temperature;BME280_humidity;BME280_pressure;Samples;Min_cycle;Max_cycle;Signal;HPM_P1;HPM_P2
2022/05/01 00:02:01;;;;;;;3.33;3.03;;;;;;;10.19;66.79;99135.06;4070402;29;20295;-63
2022/05/01 00:04:03;;;;;;;3.22;2.35;;;;;;;10.18;66.47;99136.13;4070943;29;20208;-63
2022/05/01 00:06:07;;;;;;;2.60;2.40;;;;;;;10.18;66.68;99133.38;4067280;29;20236;-63
2022/05/01 00:08:09;;;;;;;2.33;2.17;;;;;;;10.09;66.79;99129.31;4070176;29;20209;-63
2022/05/01 00:10:11;;;;;;;2.58;2.35;;;;;;;10.11;66.56;99136.22;4071190;29;20204;-63
2022/05/01 00:12:12;;;;;;;4.70;2.45;;;;;;;10.10;66.70;99139.19;4071516;29;20213;-64
2022/05/01 00:14:14;;;;;;;2.58;2.35;;;;;;;10.08;67.15;99135.88;4070620;29;20694;-63
2022/05/01 00:16:16;;;;;;;2.33;2.20;;;;;;;10.05;67.32;99131.69;4068791;29;20230;-63
2022/05/01 00:18:18;;;;;;;3.03;2.72;;;;;;;10.02;67.32;99140.31;4066395;29;20303;-64
2022/05/01 00:20:19;;;;;;;3.28;3.00;;;;;;;10.00;67.39;99141.59;4068122;29;20219;-63
2022/05/01 00:22:21;;;;;;;2.58;2.38;;;;;;;9.97;67.77;99133.88;4069828;29;20219;-64
2022/05/01 00:24:22;;;;;;;2.83;2.63;;;;;;;9.99;67.63;99137.19;4069068;29;20212;-64
2022/05/01 00:26:24;;;;;;;3.38;3.08;;;;;;;9.98;67.60;99132.81;4067533;29;20679;-63
2022/05/01 00:28:25;;;;;;;2.88;2.67;;;;;;;9.93;67.81;99129.91;4067510;29;20215;-63
2022/05/01 00:30:27;;;;;;;2.95;2.75;;;;;;;9.89;67.99;99126.81;4067981;29;20208;-63
2022/05/01 00:36:25;;;;;;;2.90;2.70;;;;;;;9.89;67.61;99126.81;4066688;29;20205;-63
2022/05/01 00:37:10;;;;;;;5.38;3.03;;;;;;;9.74;68.40;99117.38;4066112;29;20226;-63
2022/05/01 00:39:12;;;;;;;3.53;3.22;;;;;;;9.81;68.06;99123.59;4069169;29;20686;-63
2022/05/01 00:41:14;;;;;;;4.07;3.67;;;;;;;9.84;68.07;99117.66;4070723;29;20328;-64
2022/05/01 00:43:15;;;;;;;3.67;3.28;;;;;;;9.83;67.70;99115.97;4066521;28;20205;-64
2022/05/01 00:45:17;;;;;;;4.22;3.15;;;;;;;9.86;67.70;99120.97;4067362;29;20228;-64
2022/05/01 00:47:19;;;;;;;2.83;2.63;;;;;;;9.77;67.88;99122.38;4069270;29;20205;-64
2022/05/01 00:49:24;;;;;;;3.33;3.03;;;;;;;9.77;67.64;99122.38;4068476;29;20300;-63
2022/05/01 00:51:25;;;;;;;2.38;2.22;;;;;;;9.78;67.73;99118.56;4066312;29;20286;-64
2022/05/01 00:53:27;;;;;;;6.35;2.55;;;;;;;9.78;67.25;99118.56;4066147;29;20306;-64
2022/05/01 00:55:29;;;;;;;3.08;2.88;;;;;;;9.77;67.23;99111.44;4068178;29;20232;-62
2022/05/01 00:57:30;;;;;;;4.65;3.15;;;;;;;9.81;67.35;99118.13;4067255;29;20346;-65
2022/05/01 00:59:33;;;;;;;2.90;2.63;;;;;;;9.74;67.27;99118.19;4066033;29;20264;-64
2022/05/01 01:01:35;;;;;;;2.92;2.60;;;;;;;9.69;67.16;99126.25;4066054;29;20216;-64
2022/05/01 01:03:37;;;;;;;2.45;2.25;;;;;;;9.66;67.63;99126.72;4066986;29;20211;-65
2022/05/01 01:05:38;;;;;;;2.97;2.78;;;;;;;9.64;67.59;99122.53;4068833;29;20228;-64
2022/05/01 01:07:42;;;;;;;2.90;2.40;;;;;;;9.60;67.53;99126.78;4066347;29;20212;-63
2022/05/01 01:09:43;;;;;;;2.75;2.55;;;;;;;9.55;67.54;99129.38;4072849;29;20231;-64
2022/05/01 01:11:46;;;;;;;2.75;2.20;;;;;;;9.49;67.96;99127.56;4066644;29;20216;-64
2022/05/01 01:13:48;;;;;;;2.80;2.60;;;;;;;9.44;67.95;99133.72;4068864;29;20224;-64
2022/05/01 01:15:49;;;;;;;3.20;2.88;;;;;;;9.41;68.11;99125.97;4063707;29;20366;-62
2022/05/01 01:17:54;;;;;;;2.25;2.05;;;;;;;9.36;68.27;99125.78;4067452;29;20349;-62
2022/05/01 01:19:55;;;;;;;3.17;2.97;;;;;;;9.28;68.57;99117.91;4064196;29;20215;-62
2022/05/01 01:21:57;;;;;;;2.47;2.28;;;;;;;9.22;68.63;99113.34;4065192;29;20415;-64
2022/05/01 01:23:59;;;;;;;3.05;2.85;;;;;;;9.17;68.69;99109.66;4066923;29;20204;-63
2022/05/01 01:26:04;;;;;;;2.80;2.60;;;;;;;9.08;69.08;99113.75;4067312;29;20228;-63
2022/05/01 01:28:07;;;;;;;2.60;2.40;;;;;;;9.01;68.82;99112.97;4065355;29;20213;-63
2022/05/01 01:32:29;;;;;;;3.55;3.25;;;;;;;8.87;69.29;99104.06;4065138;29;20204;-65
2022/05/01 01:34:36;;;;;;;2.85;2.65;;;;;;;8.84;69.01;99109.16;4063668;29;20237;-62
2022/05/01 01:36:38;;;;;;;2.97;2.78;;;;;;;8.83;69.32;99107.47;4062626;29;20251;-63
2022/05/01 01:38:40;;;;;;;3.10;2.47;;;;;;;8.81;68.92;99104.16;4063810;29;20205;-64
2022/05/01 01:41:08;;;;;;;3.20;3.00;;;;;;;8.76;69.02;99106.72;4064781;29;20204;-64
2022/05/01 01:43:11;;;;;;;3.90;3.05;;;;;;;8.75;69.45;99110.50;4070032;29;20222;-63
2022/05/01 01:45:13;;;;;;;2.65;2.38;;;;;;;8.77;69.09;99105.66;4065034;29;20612;-63
2022/05/01 01:47:15;;;;;;;3.20;3.00;;;;;;;8.78;68.98;99104.59;4067321;29;20792;-64
2022/05/01 01:49:17;;;;;;;3.47;3.17;;;;;;;8.77;69.55;99106.50;4065958;29;20208;-63
2022/05/01 01:51:19;;;;;;;3.40;3.20;;;;;;;8.73;69.22;99104.41;4069181;29;20207;-64
2022/05/01 01:53:21;;;;;;;3.30;3.00;;;;;;;8.66;69.44;99098.19;4067358;29;21396;-63
2022/05/01 01:55:23;;;;;;;3.10;2.90;;;;;;;8.61;69.62;99101.59;4061672;29;21356;-63
2022/05/01 01:57:24;;;;;;;2.45;2.25;;;;;;;8.55;69.21;99098.94;4069700;29;20346;-62
2022/05/01 01:59:26;;;;;;;2.95;2.72;;;;;;;8.51;69.76;99103.16;4067931;29;20204;-64
2022/05/01 02:01:28;;;;;;;3.47;3.17;;;;;;;8.51;69.34;99108.59;4064869;29;20221;-65
2022/05/01 02:03:29;;;;;;;3.20;2.90;;;;;;;8.50;69.38;99107.75;4067426;29;20606;-64
2022/05/01 02:05:33;;;;;;;2.78;2.55;;;;;;;8.49;69.92;99097.09;4070025;29;20306;-64
2022/05/01 02:07:34;;;;;;;3.28;2.97;;;;;;;8.50;69.96;99106.94;4068334;29;20295;-64
2022/05/01 02:09:38;;;;;;;3.03;2.83;;;;;;;8.47;69.56;99101.91;4073173;29;20217;-65
2022/05/01 02:11:40;;;;;;;2.72;2.50;;;;;;;8.46;69.71;99100.25;4070326;29;20804;-64
2022/05/01 02:13:42;;;;;;;3.22;2.75;;;;;;;8.42;70.35;99099.03;4066852;29;20788;-64
2022/05/01 02:15:44;;;;;;;4.18;3.05;;;;;;;8.37;70.45;99093.41;4067512;29;20315;-64
2022/05/01 02:17:49;;;;;;;3.63;3.33;;;;;;;8.34;70.60;99085.69;4068781;29;20213;-63
2022/05/01 02:19:51;;;;;;;3.88;3.58;;;;;;;8.38;70.69;99092.34;4069786;29;20234;-63
2022/05/01 02:21:54;;;;;;;3.78;3.47;;;;;;;8.38;70.61;99086.88;4072619;29;20205;-64
2022/05/01 02:23:55;;;;;;;2.72;2.53;;;;;;;8.39;70.31;99088.56;4073350;29;20220;-64
2022/05/01 02:25:57;;;;;;;3.50;3.22;;;;;;;8.41;70.65;99089.19;4074150;29;20220;-64
2022/05/01 02:27:59;;;;;;;4.05;3.65;;;;;;;8.46;70.39;99090.19;4069139;29;20232;-64
2022/05/01 02:30:01;;;;;;;3.85;3.30;;;;;;;8.49;70.27;99083.44;4067705;29;20211;-63
2022/05/01 02:32:03;;;;;;;3.80;3.45;;;;;;;8.52;70.31;99089.28;4066298;29;20383;-64
2022/05/01 02:34:05;;;;;;;3.80;3.50;;;;;;;8.51;70.50;99082.19;4070357;29;20615;-64
2022/05/01 02:36:07;;;;;;;5.88;4.32;;;;;;;8.48;71.08;99079.06;4068353;29;20235;-64
2022/05/01 02:38:11;;;;;;;4.00;3.70;;;;;;;8.46;71.18;99078.44;4072860;29;20347;-64
2022/05/01 02:40:12;;;;;;;4.15;3.78;;;;;;;8.46;71.07;99079.28;4073679;29;20214;-64
2022/05/01 02:42:14;;;;;;;3.88;3.58;;;;;;;8.48;71.07;99082.59;4073892;29;20646;-64
2022/05/01 02:44:16;;;;;;;3.80;3.40;;;;;;;8.50;71.53;99071.47;4068065;29;20204;-64
2022/05/01 02:46:17;;;;;;;3.22;3.03;;;;;;;8.53;71.00;99074.59;4063298;29;20383;-64
2022/05/01 02:48:20;;;;;;;3.85;3.55;;;;;;;8.54;70.93;99075.44;4073274;29;20231;-64
2022/05/01 02:50:22;;;;;;;2.88;2.67;;;;;;;8.56;70.79;99073.31;4069225;29;20673;-64
2022/05/01 02:52:24;;;;;;;4.35;3.95;;;;;;;8.63;70.77;99068.63;4069333;29;20295;-64
2022/05/01 02:54:27;;;;;;;4.28;3.25;;;;;;;8.67;70.30;99073.41;4069672;29;20228;-63
2022/05/01 02:56:30;;;;;;;2.47;2.28;;;;;;;8.67;70.28;99070.69;4072094;29;20228;-64
2022/05/01 02:58:32;;;;;;;2.83;2.63;;;;;;;8.67;70.19;99078.03;4067474;29;20214;-64
2022/05/01 03:00:33;;;;;;;3.30;3.00;;;;;;;8.65;70.22;99066.50;4066384;29;20216;-65
2022/05/01 03:02:35;;;;;;;3.42;3.10;;;;;;;8.64;69.86;99073.03;4069001;29;20208;-64
2022/05/01 03:04:38;;;;;;;3.78;2.92;;;;;;;8.62;70.39;99066.97;4070259;29;20569;-64
2022/05/01 03:06:38;;;;;;;2.63;2.42;;;;;;;8.60;70.34;99063.59;4068754;29;20220;-64
2022/05/01 03:08:40;;;;;;;3.50;3.20;;;;;;;8.63;70.47;99065.91;4068836;29;20224;-64
2022/05/01 03:10:41;;;;;;;3.88;3.58;;;;;;;8.63;70.75;99077.63;4069001;29;20212;-65
2022/05/01 03:12:43;;;;;;;2.80;2.60;;;;;;;8.64;70.29;99067.56;4067903;29;20219;-64
2022/05/01 03:14:47;;;;;;;2.75;2.55;;;;;;;8.65;70.50;99066.50;4067049;29;20228;-63
2022/05/01 03:16:49;;;;;;;3.03;2.83;;;;;;;8.65;70.91;99069.22;4067576;29;20234;-63
2022/05/01 03:23:30;;;;;;;3.13;2.80;;;;;;;8.66;70.64;99068.16;4068003;29;20213;-63
2022/05/01 03:25:32;;;;;;;3.67;3.38;;;;;;;8.63;70.63;99068.63;4069014;29;20314;-65
2022/05/01 03:27:33;;;;;;;3.92;3.50;;;;;;;8.63;70.52;99074.09;4068462;29;20794;-64
2022/05/01 03:29:38;;;;;;;3.08;2.88;;;;;;;8.60;70.78;99064.47;4069786;29;20223;-64
2022/05/01 03:31:40;;;;;;;4.15;3.75;;;;;;;8.58;69.94;99063.00;4068132;29;20219;-64
2022/05/01 03:33:42;;;;;;;3.42;3.13;;;;;;;8.57;70.88;99064.06;4068949;29;20204;-64
2022/05/01 03:35:43;;;;;;;2.92;2.60;;;;;;;8.56;70.90;99070.59;4065363;29;20240;-65
2022/05/01 03:37:45;;;;;;;3.67;3.38;;;;;;;8.53;70.92;99065.56;4068061;29;20247;-64
2022/05/01 03:39:47;;;;;;;3.55;3.25;;;;;;;8.50;71.06;99068.75;4069149;29;20212;-66
2022/05/01 03:41:49;;;;;;;3.90;3.28;;;;;;;8.46;70.83;99067.53;4070964;29;20304;-64
2022/05/01 03:43:51;;;;;;;4.43;4.03;;;;;;;8.44;71.26;99072.38;4066150;29;20339;-65
2022/05/01 03:45:53;;;;;;;4.22;3.92;;;;;;;8.41;71.54;99064.66;4067928;29;20232;-62
2022/05/01 03:47:54;;;;;;;4.47;4.00;;;;;;;8.37;71.94;99063.41;4067555;29;20847;-63
2022/05/01 03:49:56;;;;;;;3.78;3.47;;;;;;;8.38;71.55;99065.94;4068270;29;20618;-65
2022/05/01 03:51:58;;;;;;;3.80;3.50;;;;;;;8.38;71.78;99071.38;4068368;29;20208;-64
2022/05/01 03:54:02;;;;;;;4.38;3.97;;;;;;;8.39;71.57;99066.75;4070613;29;20602;-64
2022/05/01 03:56:03;;;;;;;7.15;4.18;;;;;;;8.40;71.45;99068.41;4068730;29;20652;-64
2022/05/01 03:58:05;;;;;;;5.00;4.63;;;;;;;8.39;71.87;99066.75;4070677;29;20223;-64
2022/05/01 04:00:10;;;;;;;4.03;3.72;;;;;;;8.38;71.71;99065.94;4067509;29;20203;-64
2022/05/01 04:02:15;;;;;;;4.45;4.15;;;;;;;8.40;71.37;99069.25;4068568;29;20205;-64
2022/05/01 04:04:19;;;;;;;4.43;4.13;;;;;;;8.42;71.65;99066.31;4070418;29;20284;-64
2022/05/01 04:06:22;;;;;;;6.78;4.07;;;;;;;8.44;71.18;99069.66;4068486;29;21553;-64
2022/05/01 04:08:24;;;;;;;4.05;3.72;;;;;;;8.48;71.19;99070.88;4068728;29;20720;-63
2022/05/01 04:10:25;;;;;;;5.43;5.00;;;;;;;8.49;70.60;99073.34;4066657;29;20215;-65
2022/05/01 04:12:27;;;;;;;4.03;3.72;;;;;;;8.53;70.61;99068.28;4067835;29;20212;-65
2022/05/01 04:14:28;;;;;;;5.32;4.82;;;;;;;8.55;70.38;99077.09;4069192;29;20234;-64
2022/05/01 04:16:30;;;;;;;4.07;3.78;;;;;;;8.52;70.54;99072.09;4068754;29;20315;-64
2022/05/01 04:18:32;;;;;;;3.35;3.05;;;;;;;8.53;70.51;99073.75;4069959;29;20257;-64
2022/05/01 04:20:37;;;;;;;3.40;3.10;;;;;;;8.52;71.08;99072.09;4068281;29;20665;-65
2022/05/01 04:22:40;;;;;;;4.18;3.88;;;;;;;8.54;70.83;99070.00;4070757;29;20207;-65
2022/05/01 04:24:41;;;;;;;4.07;3.78;;;;;;;8.52;70.58;99072.09;4069947;29;20231;-64
2022/05/01 04:26:42;;;;;;;3.55;3.25;;;;;;;8.53;70.92;99079.19;4064394;29;20230;-64
2022/05/01 04:29:36;;;;;;;3.60;3.30;;;;;;;8.55;70.44;99066.19;4066779;29;20222;-65
2022/05/01 04:31:06;;;;;;;4.57;4.07;;;;;;;8.60;71.10;99074.53;4065745;29;20209;-65
2022/05/01 04:33:09;;;;;;;3.65;3.33;;;;;;;8.60;70.90;99071.78;4072661;29;20276;-65
2022/05/01 04:35:11;;;;;;;4.00;3.78;;;;;;;8.60;71.10;99074.53;4067462;29;20664;-65
2022/05/01 04:37:12;;;;;;;9.23;4.15;;;;;;;8.60;71.29;99069.91;4069946;29;20218;-65
2022/05/01 04:39:14;;;;;;;7.18;4.38;;;;;;;8.60;70.59;99069.06;4068728;29;20211;-65
2022/05/01 04:41:18;;;;;;;4.10;3.25;;;;;;;8.60;70.96;99074.53;4069847;29;20291;-65
2022/05/01 04:43:22;;;;;;;4.55;4.25;;;;;;;8.62;70.83;99069.69;4068690;29;20347;-65
2022/05/01 04:45:24;;;;;;;4.25;3.95;;;;;;;8.44;71.09;99075.09;4070172;29;20224;-62
2022/05/01 04:47:26;;;;;;;11.70;4.72;;;;;;;8.44;71.48;99075.09;4070117;29;20645;-65
2022/05/01 04:49:29;;;;;;;3.90;3.60;;;;;;;8.48;71.13;99073.59;4069648;29;20311;-64
2022/05/01 04:51:30;;;;;;;4.35;3.95;;;;;;;8.51;71.12;99076.72;4069217;29;20210;-65
2022/05/01 04:53:33;;;;;;;4.68;4.18;;;;;;;8.55;70.53;99074.38;4070871;29;20660;-64
2022/05/01 04:55:34;;;;;;;5.32;3.92;;;;;;;8.59;71.17;99075.59;4068384;29;20242;-64
2022/05/01 04:57:39;;;;;;;3.65;3.35;;;;;;;8.62;70.96;99070.50;4069074;29;20211;-64
2022/05/01 04:59:41;;;;;;;3.28;3.08;;;;;;;8.65;71.17;99078.25;4069950;29;20310;-64
2022/05/01 05:01:43;;;;;;;4.78;4.38;;;;;;;8.69;71.19;99084.94;4068428;29;20295;-64
2022/05/01 05:03:45;;;;;;;6.65;4.90;;;;;;;8.72;70.61;99072.72;4068497;29;20614;-64
2022/05/01 05:05:46;;;;;;;4.82;4.43;;;;;;;8.75;71.20;99085.94;4067580;29;20629;-64
2022/05/01 05:07:48;;;;;;;3.78;3.28;;;;;;;8.72;70.70;99084.50;4068421;29;20243;-64
2022/05/01 05:09:55;;;;;;;4.25;3.95;;;;;;;8.75;70.42;99083.22;4067069;29;20212;-65
2022/05/01 05:11:57;;;;;;;4.68;4.28;;;;;;;8.77;70.67;99092.00;4064299;29;20291;-64
2022/05/01 05:13:58;;;;;;;3.75;3.45;;;;;;;8.80;70.57;99094.28;4068572;29;20298;-64
2022/05/01 05:16:00;;;;;;;4.80;4.35;;;;;;;8.82;69.96;99094.91;4068479;29;20240;-64
2022/05/01 05:18:02;;;;;;;5.05;4.63;;;;;;;8.82;70.31;99094.91;4069826;29;20304;-65
2022/05/01 05:20:06;;;;;;;4.20;3.88;;;;;;;8.90;70.04;99094.59;4074160;29;20227;-64
2022/05/01 05:22:07;;;;;;;3.47;3.28;;;;;;;8.89;70.48;99101.13;4068591;29;20208;-64
2022/05/01 05:24:09;;;;;;;3.83;3.53;;;;;;;8.90;70.12;99098.16;4068867;29;20222;-64
2022/05/01 05:26:10;;;;;;;5.80;5.20;;;;;;;8.87;70.04;99101.34;4069419;29;20242;-63
2022/05/01 05:28:12;;;;;;;5.47;5.00;;;;;;;8.86;70.42;99096.09;4065641;29;20323;-63
2022/05/01 05:30:14;;;;;;;5.13;4.72;;;;;;;8.88;69.83;99102.19;4067734;29;20208;-65
2022/05/01 05:32:16;;;;;;;5.22;4.72;;;;;;;8.80;70.11;99097.00;4066765;29;20227;-64
2022/05/01 05:34:17;;;;;;;4.65;4.35;;;;;;;8.78;70.48;99099.97;4068983;29;20212;-63
2022/05/01 05:36:19;;;;;;;4.63;4.25;;;;;;;8.73;70.97;99101.69;4066167;29;20257;-64
2022/05/01 05:38:20;;;;;;;5.05;4.65;;;;;;;8.75;70.79;99105.03;4066531;29;20240;-64
2022/05/01 05:40:22;;;;;;;4.90;4.50;;;;;;;8.82;69.96;99098.44;4066847;29;20223;-64
2022/05/01 05:42:24;;;;;;;4.80;4.40;;;;;;;8.84;70.08;99098.22;4067263;29;20218;-64
2022/05/01 05:44:25;;;;;;;7.20;4.28;;;;;;;8.78;70.70;99090.94;4068245;29;20214;-64
2022/05/01 05:46:27;;;;;;;7.03;5.55;;;;;;;8.74;70.33;99103.38;4071036;29;20228;-64
2022/05/01 05:48:29;;;;;;;6.35;5.78;;;;;;;8.74;69.97;99097.91;4066127;29;20208;-65
2022/05/01 05:50:30;;;;;;;7.32;6.70;;;;;;;8.72;70.96;99094.56;4063540;29;20208;-65
2022/05/01 05:52:32;;;;;;;6.55;5.95;;;;;;;8.81;70.06;99098.69;4066024;29;20696;-65
2022/05/01 05:54:34;;;;;;;11.30;5.75;;;;;;;8.89;69.85;99095.66;4068270;29;20204;-65
2022/05/01 05:56:35;;;;;;;6.00;5.35;;;;;;;8.92;70.22;99098.78;4071179;29;20228;-64
2022/05/01 05:58:37;;;;;;;5.15;4.40;;;;;;;8.99;69.87;99106.88;4066509;29;20748;-64
2022/05/01 06:00:38;;;;;;;3.63;3.33;;;;;;;9.02;69.73;99101.00;4069827;29;20219;-64
2022/05/01 06:02:40;;;;;;;4.68;4.22;;;;;;;9.07;69.81;99104.72;4071419;29;20212;-63
2022/05/01 06:04:41;;;;;;;4.28;3.95;;;;;;;9.09;69.74;99101.75;4070763;29;20215;-63
2022/05/01 06:06:43;;;;;;;3.80;3.50;;;;;;;9.13;69.42;99102.97;4072519;29;20316;-63
2022/05/01 06:08:45;;;;;;;4.78;4.38;;;;;;;9.17;69.27;99109.66;4072858;29;20295;-63
2022/05/01 06:10:47;;;;;;;4.78;4.38;;;;;;;9.17;68.88;99109.66;4074564;29;20210;-63
2022/05/01 06:12:48;;;;;;;5.38;4.93;;;;;;;9.16;69.52;99113.44;4073037;29;20304;-63
2022/05/01 06:14:53;;;;;;;5.40;4.70;;;;;;;9.18;68.97;99114.03;4073570;29;20661;-62
2022/05/01 06:16:54;;;;;;;5.53;5.03;;;;;;;9.23;69.23;99111.47;4072846;29;20323;-64
2022/05/01 06:18:56;;;;;;;5.47;4.97;;;;;;;9.27;69.31;99108.06;4074762;29;20216;-64
2022/05/01 06:20:58;;;;;;;5.43;5.00;;;;;;;9.30;69.29;99114.97;4072253;29;20208;-63
2022/05/01 06:23:00;;;;;;;5.50;5.05;;;;;;;9.31;69.35;99116.63;4070888;29;20208;-63
2022/05/01 06:25:02;;;;;;;6.00;5.40;;;;;;;9.36;69.46;99116.78;4071789;29;20548;-63
2022/05/01 06:27:04;;;;;;;7.38;6.03;;;;;;;9.41;69.37;99114.22;4074524;29;20685;-63
2022/05/01 06:29:06;;;;;;;3.85;3.55;;;;;;;9.48;69.08;99112.22;4075533;29;21256;-63
2022/05/01 06:31:07;;;;;;;4.85;4.55;;;;;;;9.45;69.04;99113.53;4069201;29;20208;-63
2022/05/01 06:33:13;;;;;;;5.28;4.80;;;;;;;9.50;68.70;99121.03;4069600;29;20209;-63
2022/05/01 06:35:16;;;;;;;4.78;4.43;;;;;;;9.61;68.92;99118.34;4067504;29;20232;-63
2022/05/01 06:37:17;;;;;;;4.07;3.67;;;;;;;9.63;68.65;99116.22;4072568;29;20208;-63
2022/05/01 06:39:19;;;;;;;4.60;4.22;;;;;;;9.70;68.45;99121.63;4074350;29;20637;-64
2022/05/01 06:41:25;;;;;;;5.38;4.88;;;;;;;9.72;68.71;99119.47;4071446;29;20212;-64
2022/05/01 06:43:27;;;;;;;4.80;4.40;;;;;;;9.73;68.75;99123.88;4069864;29;20211;-65
2022/05/01 06:45:29;;;;;;;3.78;3.50;;;;;;;9.52;68.01;99125.22;4074851;29;20228;-63
2022/05/01 06:47:30;;;;;;;5.50;5.00;;;;;;;9.69;67.29;99117.22;4074265;29;20236;-63
2022/05/01 06:49:32;;;;;;;5.55;5.07;;;;;;;9.49;67.87;99124.81;4068534;29;22943;-63
2022/05/01 06:51:33;;;;;;;4.75;4.22;;;;;;;9.67;67.58;99127.56;4077945;29;20311;-64
2022/05/01 06:53:35;;;;;;;4.72;4.32;;;;;;;9.71;67.60;99123.28;4072524;29;20235;-63
2022/05/01 06:55:37;;;;;;;7.35;5.50;;;;;;;9.82;67.69;99128.00;4070261;29;20652;-63
2022/05/01 06:57:52;;;;;;;5.57;5.07;;;;;;;9.83;67.44;99125.00;4072424;29;20235;-63
2022/05/01 06:59:55;;;;;;;12.80;10.05;;;;;;;9.91;67.57;99129.31;4086716;29;20250;-63
2022/05/01 07:01:56;;;;;;;11.50;7.65;;;;;;;9.97;67.71;99123.78;4074049;29;20615;-65
2022/05/01 07:03:58;;;;;;;10.10;9.10;;;;;;;10.02;67.80;99123.09;4072604;29;21197;-64
2022/05/01 07:06:07;;;;;;;5.63;5.13;;;;;;;10.01;67.28;99124.16;4072975;29;20322;-65
2022/05/01 07:08:09;;;;;;;4.85;4.32;;;;;;;10.04;67.65;99119.09;4069531;29;20212;-64
2022/05/01 07:10:11;;;;;;;6.82;5.88;;;;;;;10.14;67.15;99124.81;4058347;29;20327;-64
2022/05/01 07:12:16;;;;;;;5.47;3.80;;;;;;;10.33;66.78;99123.69;4072377;29;20211;-65
2022/05/01 07:14:19;;;;;;;5.25;4.75;;;;;;;10.31;65.68;99125.00;4072793;29;20287;-64
2022/05/01 07:16:22;;;;;;;5.53;5.03;;;;;;;10.40;66.06;99120.84;4071100;29;20259;-65
2022/05/01 07:18:24;;;;;;;4.78;4.38;;;;;;;10.62;66.10;99116.50;4056062;29;20216;-64
2022/05/01 07:20:26;;;;;;;4.43;4.03;;;;;;;10.66;66.21;99117.69;4085568;28;20242;-63
2022/05/01 07:22:27;;;;;;;5.30;4.80;;;;;;;10.77;65.88;99119.63;4071601;29;20235;-66
2022/05/01 07:24:29;;;;;;;5.13;4.03;;;;;;;10.89;65.57;99113.91;4074979;29;20298;-62
2022/05/01 07:26:33;;;;;;;4.00;3.70;;;;;;;11.04;65.02;99111.53;4073277;29;20224;-63
2022/05/01 07:28:35;;;;;;;4.43;3.90;;;;;;;10.77;64.82;99113.06;4074643;29;20315;-65
2022/05/01 07:30:36;;;;;;;4.85;4.50;;;;;;;11.17;64.80;99114.03;4058055;29;20211;-65
2022/05/01 07:32:38;;;;;;;3.60;3.40;;;;;;;11.46;64.09;99115.78;4082597;28;20215;-65
2022/05/01 07:34:41;;;;;;;4.80;4.40;;;;;;;11.39;63.54;99109.63;4071605;29;20218;-64
2022/05/01 07:36:43;;;;;;;5.38;4.97;;;;;;;11.71;63.60;99116.34;4070118;29;20307;-66
2022/05/01 07:38:46;;;;;;;5.72;4.32;;;;;;;11.80;63.22;99106.69;4069466;29;20216;-62
2022/05/01 07:40:47;;;;;;;3.92;3.35;;;;;;;11.96;62.48;99111.38;4070346;29;20208;-62
2022/05/01 07:42:49;;;;;;;4.32;4.03;;;;;;;12.00;61.73;99107.09;4066994;29;20212;-64
2022/05/01 07:44:51;;;;;;;4.18;3.88;;;;;;;11.96;61.89;99100.41;4071504;29;20219;-64
2022/05/01 07:46:52;;;;;;;3.47;3.17;;;;;;;12.08;62.27;99103.94;4069587;29;20311;-64
2022/05/01 07:48:54;;;;;;;3.78;3.35;;;;;;;12.19;61.59;99105.81;4071661;29;20702;-64
2022/05/01 07:50:56;;;;;;;3.78;3.47;;;;;;;12.38;61.80;99104.50;4069224;29;20219;-64
2022/05/01 07:52:57;;;;;;;3.40;3.10;;;;;;;12.53;61.78;99099.28;4068074;29;20291;-63
2022/05/01 07:55:00;;;;;;;4.18;3.78;;;;;;;12.59;61.46;99102.94;4068406;29;20208;-63
2022/05/01 07:57:01;;;;;;;3.47;3.17;;;;;;;12.61;60.60;99098.03;4072717;29;20312;-63
2022/05/01 07:59:03;;;;;;;4.88;3.13;;;;;;;12.63;60.45;99096.69;4069264;29;20786;-63
2022/05/01 08:01:05;;;;;;;4.78;3.85;;;;;;;12.64;60.21;99095.63;4067706;29;20215;-63
2022/05/01 08:05:29;;;;;;;6.40;4.10;;;;;;;12.79;60.84;99095.88;4067498;29;20240;-63
2022/05/01 08:07:31;;;;;;;3.53;3.25;;;;;;;12.77;60.04;99092.53;4071544;29;20240;-64
2022/05/01 08:09:32;;;;;;;4.72;4.05;;;;;;;12.84;60.47;99093.19;4070036;29;20296;-63
2022/05/01 08:11:34;;;;;;;4.22;3.85;;;;;;;12.95;60.67;99100.56;4068987;29;20208;-64
2022/05/01 08:13:35;;;;;;;3.63;3.30;;;;;;;13.01;59.83;99094.06;4070034;29;20304;-64
2022/05/01 08:15:37;;;;;;;3.67;3.38;;;;;;;13.14;59.63;99088.22;4067434;29;20239;-63
2022/05/01 08:17:39;;;;;;;3.38;3.17;;;;;;;13.01;58.80;99090.47;4067641;29;20223;-64
2022/05/01 08:22:01;;;;;;;4.32;3.92;;;;;;;13.34;58.20;99094.00;4068844;29;20210;-63
2022/05/01 08:24:03;;;;;;;3.63;3.33;;;;;;;13.67;58.83;99093.06;4073646;29;20211;-63
2022/05/01 08:26:06;;;;;;;7.90;2.95;;;;;;;13.77;58.57;99094.03;4055422;29;20337;-63
2022/05/01 08:28:09;;;;;;;3.05;2.67;;;;;;;13.94;57.38;99104.94;4068119;29;20575;-62
2022/05/01 08:30:11;;;;;;;2.85;2.65;;;;;;;13.98;58.13;99101.41;4070606;29;20207;-62
2022/05/01 08:32:12;;;;;;;3.25;2.95;;;;;;;13.83;57.48;99093.00;4066455;29;20250;-62
2022/05/01 08:34:14;;;;;;;3.35;2.97;;;;;;;13.66;56.69;99097.75;4066668;29;20216;-63
2022/05/01 08:36:16;;;;;;;2.92;2.67;;;;;;;13.48;57.20;99103.56;4070337;29;20239;-62
2022/05/01 08:38:18;;;;;;;3.50;3.20;;;;;;;13.65;56.69;99100.75;4069116;29;20214;-63
2022/05/01 08:40:20;;;;;;;7.28;2.67;;;;;;;13.55;57.83;99100.59;4069702;29;20214;-63
2022/05/01 08:42:22;;;;;;;2.65;2.45;;;;;;;13.41;57.30;99094.66;4069713;29;20212;-63
2022/05/01 08:44:41;;;;;;;3.95;3.13;;;;;;;14.09;57.47;99091.38;4070293;29;20331;-65
2022/05/01 08:46:52;;;;;;;3.17;2.83;;;;;;;14.80;56.12;99099.25;4071699;29;20287;-63
2022/05/01 08:49:04;;;;;;;3.45;3.25;;;;;;;14.75;55.91;99091.78;4071642;29;20275;-66
2022/05/01 08:51:07;;;;;;;8.90;2.90;;;;;;;14.83;55.77;99098.75;4071002;29;20240;-65
2022/05/01 08:53:09;;;;;;;2.28;1.92;;;;;;;14.71;55.18;99089.81;4078428;29;20565;-64
2022/05/01 08:55:12;;;;;;;3.40;3.10;;;;;;;14.96;55.31;99093.59;4070552;29;20303;-64
2022/05/01 08:57:19;;;;;;;4.00;3.42;;;;;;;14.81;54.93;99089.91;4069302;29;20238;-64
2022/05/01 08:59:21;;;;;;;3.45;3.15;;;;;;;15.19;53.25;99092.41;4071612;29;20200;-64
2022/05/01 09:01:23;;;;;;;3.88;2.72;;;;;;;15.13;54.89;99088.78;4070789;29;20208;-64
2022/05/01 09:03:25;;;;;;;3.47;3.17;;;;;;;15.68;53.51;99097.41;4070272;29;21059;-64
2022/05/01 09:05:27;;;;;;;3.75;3.45;;;;;;;15.66;53.40;99094.09;4071772;29;20261;-65
2022/05/01 09:07:29;;;;;;;2.67;2.45;;;;;;;15.44;53.79;99096.16;4071185;29;20564;-65
2022/05/01 09:09:31;;;;;;;3.67;2.13;;;;;;;15.62;53.77;99097.66;4075910;29;20212;-65
2022/05/01 09:13:53;;;;;;;4.05;3.08;;;;;;;15.65;53.97;99097.13;4069802;29;20255;-64
2022/05/01 09:16:10;;;;;;;3.65;2.67;;;;;;;15.71;52.14;99096.84;4069612;29;20240;-64
2022/05/01 09:18:14;;;;;;;3.50;2.58;;;;;;;15.36;52.31;99093.91;4075068;29;20669;-64
2022/05/01 09:20:15;;;;;;;3.47;2.67;;;;;;;15.54;52.95;99093.47;4071784;29;20236;-64
2022/05/01 09:22:18;;;;;;;3.70;2.72;;;;;;;15.99;53.49;99099.22;4069573;29;20592;-64
2022/05/01 09:24:27;;;;;;;3.13;2.78;;;;;;;16.05;52.92;99092.59;4069571;29;20689;-64
2022/05/01 09:26:36;;;;;;;3.15;2.63;;;;;;;15.81;52.24;99099.69;4066604;29;20319;-64
2022/05/01 09:28:47;;;;;;;3.25;2.85;;;;;;;16.06;53.53;99094.28;4069087;29;20243;-64
2022/05/01 09:30:48;;;;;;;2.78;2.05;;;;;;;16.14;54.07;99090.97;4070936;29;20204;-64
2022/05/01 09:32:53;;;;;;;3.10;2.75;;;;;;;16.21;52.93;99099.81;4070456;29;20214;-65
2022/05/01 09:34:57;;;;;;;3.17;2.50;;;;;;;16.09;53.37;99099.22;4071351;29;20239;-65
2022/05/01 09:37:01;;;;;;;3.30;3.00;;;;;;;16.32;52.65;99098.75;4071405;29;20239;-65
2022/05/01 09:39:04;;;;;;;3.00;2.58;;;;;;;16.44;52.21;99099.34;4071544;29;20236;-65
2022/05/01 09:41:13;;;;;;;4.10;2.92;;;;;;;16.20;52.24;99105.63;4066945;29;20208;-65
2022/05/01 09:43:36;;;;;;;2.55;2.35;;;;;;;16.46;52.69;99105.44;4072469;29;20215;-64
2022/05/01 09:45:38;;;;;;;3.00;2.58;;;;;;;16.66;52.55;99099.97;4071285;29;20236;-65
2022/05/01 09:47:43;;;;;;;3.25;2.95;;;;;;;16.42;52.28;99107.09;4071454;29;20215;-65
2022/05/01 09:49:48;;;;;;;3.10;2.22;;;;;;;16.48;53.09;99110.69;4070327;29;20220;-65
2022/05/01 09:51:55;;;;;;;3.22;2.95;;;;;;;16.56;51.90;99113.75;4072259;29;20761;-65
2022/05/01 09:54:00;;;;;;;2.90;2.60;;;;;;;16.68;51.66;99094.97;4054718;29;20210;-64
2022/05/01 09:56:01;;;;;;;3.58;2.88;;;;;;;16.44;52.41;99104.06;4072556;29;20227;-65
2022/05/01 09:58:11;;;;;;;2.28;2.08;;;;;;;16.67;52.71;99095.25;4068648;29;20211;-65
2022/05/01 10:00:13;;;;;;;2.53;2.33;;;;;;;16.80;52.56;99101.06;4070185;29;20204;-65